Explorer Of The Seas — C6SE4 — position and weather

sailwx.info

Track history (hours):
 
Tides and Currents Weather Stations Pressure Air Temp Water Temp Dewpoint Dewpoint Depression Visibility Wind Speed Wind Dir Waves Ship Positions

Explorer Of The Seas

Operator: Royal Caribbean Cruises Ltd

Last reported at 2014-Sep-21 09:12 UTC. Time now 2014-Sep-23 08:17 UTC.
Position N 37°48' W 070°39'.

Length 311 m; draft 9.2 m.

Type: Passenger vessel. MMSI: 311316000.

Date/timePositionNaut miles runAvg speedWind from/ knotsBaromVisibWave heightAir tempDewpointWater temp
2014-Sep-21 09:12N 37°48' W 070°39'1320.4
2014-Sep-21 08:32N 37°58' W 070°51'2019.1
2014-Sep-21 07:31N 38°12' W 071°08'1818.8
2014-Sep-21 06:33N 38°25' W 071°24'1918.5
2014-Sep-21 05:33N 38°39' W 071°40'1918.6
2014-Sep-21 04:33N 38°52' W 071°56'1918.6
2014-Sep-21 03:33N 39°06' W 072°13'1918.6
2014-Sep-21 02:33N 39°19' W 072°29'2019.0
2014-Sep-21 01:29N 39°34' W 072°47'1819.3
2014-Sep-21 00:34N 39°47' W 073°03'1918.8
2014-Sep-20 23:33N 40°01' W 073°20'1919.0
2014-Sep-20 22:33N 40°15' W 073°36'1616.0
2014-Sep-20 21:33N 40°27' W 073°50'1413.9
2014-Sep-20 20:34N 40°37' W 074°03'3 2.8
2014-Sep-20 19:31N 40°40' W 074°04'0 0.0
2014-Sep-20 18:28N 40°40' W 074°04'0 0.0
2014-Sep-20 16:28N 40°40' W 074°04'0 0.0
2014-Sep-20 15:22N 40°40' W 074°04'0 0.0
2014-Sep-20 13:28N 40°40' W 074°04'0 0.0
2014-Sep-20 12:28N 40°40' W 074°04'0 0.0
2014-Sep-20 11:33N 40°40' W 074°04'1110.9
2014-Sep-20 10:33N 40°30' W 073°58'1111.1
2014-Sep-20 09:33N 40°27' W 073°43'1010.2
2014-Sep-20 08:33N 40°28' W 073°30'1010.2
2014-Sep-20 07:33N 40°29' W 073°17'1010.3
2014-Sep-20 06:33N 40°29' W 073°03'1010.2
2014-Sep-20 05:33N 40°30' W 072°50'1010.1
2014-Sep-20 04:33N 40°30' W 072°36'1010.0
2014-Sep-20 03:33N 40°30' W 072°23'1010.1
2014-Sep-20 02:33N 40°31' W 072°10'10 9.9
2014-Sep-20 01:33N 40°31' W 071°57'1010.1
2014-Sep-20 00:33N 40°31' W 071°44'1010.0
2014-Sep-19 23:33N 40°32' W 071°31'110 9.7
2014-Sep-19 12:10N 40°44' W 069°06'8 9.3
2014-Sep-19 11:20N 40°51' W 069°03'910.1
2014-Sep-19 10:28N 40°59' W 069°09'111 9.4
2014-Sep-18 22:33N 42°23' W 070°46'12 1.2
2014-Sep-18 12:33N 42°21' W 071°02'0 0.0
2014-Sep-18 11:33N 42°21' W 071°02'0 0.1
2014-Sep-18 10:33N 42°21' W 071°02'8 8.1
2014-Sep-18 09:33N 42°23' W 070°51'1110.3
2014-Sep-18 08:29N 42°22' W 070°37'23010.7
2014-Sep-17 11:00N 43°06' W 065°30'11410.0 200 / 111015.1 1.1 13.0
2014-Sep-16 23:33N 44°20' W 063°30'1010.1
2014-Sep-16 22:33N 44°30' W 063°30'9 8.1
2014-Sep-16 21:30N 44°38' W 063°34'0 0.0
2014-Sep-16 20:32N 44°38' W 063°34'0 0.0
2014-Sep-16 19:33N 44°38' W 063°34'0 0.0
2014-Sep-16 18:23N 44°38' W 063°34'0 0.0
2014-Sep-16 17:23N 44°38' W 063°34'0 0.0
2014-Sep-16 16:26N 44°38' W 063°34'0 0.0
2014-Sep-16 15:23N 44°38' W 063°34'0 0.0
2014-Sep-16 14:27N 44°38' W 063°34'0 0.0
2014-Sep-16 13:24N 44°38' W 063°34'0 0.0
2014-Sep-16 12:29N 44°38' W 063°34'1 0.6
2014-Sep-16 11:33N 44°39' W 063°33'1413.6
2014-Sep-16 10:33N 44°26' W 063°26'1414.5
2014-Sep-16 09:33N 44°13' W 063°35'  
2014-Sep-13 11:33N 43°40' W 070°14'5 5.4
2014-Sep-13 10:33N 43°35' W 070°10'1312.0
2014-Sep-13 09:30N 43°25' W 070°01'2211.2
2014-Sep-13 07:33N 43°04' W 069°51'1111.1
2014-Sep-13 06:33N 42°53' W 069°47'1111.2
2014-Sep-13 05:33N 42°43' W 069°41'1411.0
2014-Sep-13 04:19N 42°30' W 069°36'1011.1
2014-Sep-13 03:24N 42°20' W 069°32'1411.2
2014-Sep-13 02:09N 42°07' W 069°26'711.4
2014-Sep-13 01:33N 42°00' W 069°23'1111.5
2014-Sep-13 00:33N 41°49' W 069°18'1111.3
2014-Sep-12 23:33N 41°39' W 069°14'1111.2
2014-Sep-12 22:33N 41°28' W 069°09'1110.9
2014-Sep-12 21:32N 41°17' W 069°05'1111.2
2014-Sep-12 20:33N 41°07' W 068°60'1111.3
2014-Sep-12 19:33N 40°56' W 068°55'1211.1
2014-Sep-12 18:31N 40°45' W 068°51'1110.1
2014-Sep-12 17:28N 40°36' W 068°58'1011.3
2014-Sep-12 16:33N 40°30' W 069°08'1111.0
2014-Sep-12 15:33N 40°26' W 069°22'1211.3
2014-Sep-12 14:31N 40°26' W 069°37'1111.3
2014-Sep-12 13:33N 40°25' W 069°52'1111.3
2014-Sep-12 12:33N 40°25' W 070°06'1111.1
2014-Sep-12 11:33N 40°25' W 070°21'1111.1
2014-Sep-12 10:33N 40°25' W 070°36'5 8.6
2014-Sep-12 10:00N 40°24' W 070°42'615.0 010 / 261013.5 19.0
2014-Sep-12 09:33N 40°24' W 070°51'1111.3
2014-Sep-12 08:33N 40°24' W 071°05'1111.3
2014-Sep-12 07:33N 40°24' W 071°20'1111.2
2014-Sep-12 06:33N 40°23' W 071°35'1111.3
2014-Sep-12 05:33N 40°23' W 071°50'1111.2
2014-Sep-12 04:33N 40°23' W 072°04'1111.1
2014-Sep-12 03:33N 40°23' W 072°19'1111.2
2014-Sep-12 02:33N 40°22' W 072°34'1111.2
2014-Sep-12 01:33N 40°22' W 072°48'1111.4
2014-Sep-12 00:33N 40°22' W 073°03'1111.2
2014-Sep-11 23:33N 40°24' W 073°18'1111.3
2014-Sep-11 22:33N 40°25' W 073°33'1111.3
2014-Sep-11 21:33N 40°27' W 073°47'1614.6
2014-Sep-11 20:29N 40°37' W 074°03'3 1.5
2014-Sep-11 18:33N 40°40' W 074°04'0 0.0
2014-Sep-11 17:33N 40°40' W 074°04'0 0.0
2014-Sep-11 16:33N 40°40' W 074°04'0 0.0
2014-Sep-11 15:33N 40°40' W 074°04'0 0.0
2014-Sep-11 14:33N 40°40' W 074°04'0 0.0
2014-Sep-11 13:33N 40°40' W 074°04'0 0.0
2014-Sep-11 12:33N 40°40' W 074°04'0 0.0
2014-Sep-11 11:33N 40°40' W 074°04'9 9.3
2014-Sep-11 10:33N 40°31' W 073°60'1515.0
2014-Sep-11 09:33N 40°24' W 073°42'  
Track history (hours):
 
Tides and Currents Weather Stations Pressure Air Temp Water Temp Dewpoint Dewpoint Depression Visibility Wind Speed Wind Dir Waves Ship Positions

Explorer Of The Seas

Operator: Royal Caribbean Cruises Ltd

Last reported at 2014-Sep-21 09:12 UTC. Time now 2014-Sep-23 08:17 UTC.
Position N 37°48' W 070°39'.

Length 311 m; draft 9.2 m.

Type: Passenger vessel. MMSI: 311316000.

Date/timePositionNaut miles runAvg speedWind from/ knotsBaromVisibWave heightAir tempDewpointWater temp
2014-Sep-21 09:12N 37°48' W 070°39'1320.4
2014-Sep-21 08:32N 37°58' W 070°51'2019.1
2014-Sep-21 07:31N 38°12' W 071°08'1818.8
2014-Sep-21 06:33N 38°25' W 071°24'1918.5
2014-Sep-21 05:33N 38°39' W 071°40'1918.6
2014-Sep-21 04:33N 38°52' W 071°56'1918.6
2014-Sep-21 03:33N 39°06' W 072°13'1918.6
2014-Sep-21 02:33N 39°19' W 072°29'2019.0
2014-Sep-21 01:29N 39°34' W 072°47'1819.3
2014-Sep-21 00:34N 39°47' W 073°03'1918.8
2014-Sep-20 23:33N 40°01' W 073°20'1919.0
2014-Sep-20 22:33N 40°15' W 073°36'1616.0
2014-Sep-20 21:33N 40°27' W 073°50'1413.9
2014-Sep-20 20:34N 40°37' W 074°03'3 2.8
2014-Sep-20 19:31N 40°40' W 074°04'0 0.0
2014-Sep-20 18:28N 40°40' W 074°04'0 0.0
2014-Sep-20 16:28N 40°40' W 074°04'0 0.0
2014-Sep-20 15:22N 40°40' W 074°04'0 0.0
2014-Sep-20 13:28N 40°40' W 074°04'0 0.0
2014-Sep-20 12:28N 40°40' W 074°04'0 0.0
2014-Sep-20 11:33N 40°40' W 074°04'1110.9
2014-Sep-20 10:33N 40°30' W 073°58'1111.1
2014-Sep-20 09:33N 40°27' W 073°43'1010.2
2014-Sep-20 08:33N 40°28' W 073°30'1010.2
2014-Sep-20 07:33N 40°29' W 073°17'1010.3
2014-Sep-20 06:33N 40°29' W 073°03'1010.2
2014-Sep-20 05:33N 40°30' W 072°50'1010.1
2014-Sep-20 04:33N 40°30' W 072°36'1010.0
2014-Sep-20 03:33N 40°30' W 072°23'1010.1
2014-Sep-20 02:33N 40°31' W 072°10'10 9.9
2014-Sep-20 01:33N 40°31' W 071°57'1010.1
2014-Sep-20 00:33N 40°31' W 071°44'1010.0
2014-Sep-19 23:33N 40°32' W 071°31'110 9.7
2014-Sep-19 12:10N 40°44' W 069°06'8 9.3
2014-Sep-19 11:20N 40°51' W 069°03'910.1
2014-Sep-19 10:28N 40°59' W 069°09'111 9.4
2014-Sep-18 22:33N 42°23' W 070°46'12 1.2
2014-Sep-18 12:33N 42°21' W 071°02'0 0.0
2014-Sep-18 11:33N 42°21' W 071°02'0 0.1
2014-Sep-18 10:33N 42°21' W 071°02'8 8.1
2014-Sep-18 09:33N 42°23' W 070°51'1110.3
2014-Sep-18 08:29N 42°22' W 070°37'23010.7
2014-Sep-17 11:00N 43°06' W 065°30'11410.0 200 / 111015.1 1.1 13.0
2014-Sep-16 23:33N 44°20' W 063°30'1010.1
2014-Sep-16 22:33N 44°30' W 063°30'9 8.1
2014-Sep-16 21:30N 44°38' W 063°34'0 0.0
2014-Sep-16 20:32N 44°38' W 063°34'0 0.0
2014-Sep-16 19:33N 44°38' W 063°34'0 0.0
2014-Sep-16 18:23N 44°38' W 063°34'0 0.0
2014-Sep-16 17:23N 44°38' W 063°34'0 0.0
2014-Sep-16 16:26N 44°38' W 063°34'0 0.0
2014-Sep-16 15:23N 44°38' W 063°34'0 0.0
2014-Sep-16 14:27N 44°38' W 063°34'0 0.0
2014-Sep-16 13:24N 44°38' W 063°34'0 0.0
2014-Sep-16 12:29N 44°38' W 063°34'1 0.6
2014-Sep-16 11:33N 44°39' W 063°33'1413.6
2014-Sep-16 10:33N 44°26' W 063°26'1414.5
2014-Sep-16 09:33N 44°13' W 063°35'  
2014-Sep-13 11:33N 43°40' W 070°14'5 5.4
2014-Sep-13 10:33N 43°35' W 070°10'1312.0
2014-Sep-13 09:30N 43°25' W 070°01'2211.2
2014-Sep-13 07:33N 43°04' W 069°51'1111.1
2014-Sep-13 06:33N 42°53' W 069°47'1111.2
2014-Sep-13 05:33N 42°43' W 069°41'1411.0
2014-Sep-13 04:19N 42°30' W 069°36'1011.1
2014-Sep-13 03:24N 42°20' W 069°32'1411.2
2014-Sep-13 02:09N 42°07' W 069°26'711.4
2014-Sep-13 01:33N 42°00' W 069°23'1111.5
2014-Sep-13 00:33N 41°49' W 069°18'1111.3
2014-Sep-12 23:33N 41°39' W 069°14'1111.2
2014-Sep-12 22:33N 41°28' W 069°09'1110.9
2014-Sep-12 21:32N 41°17' W 069°05'1111.2
2014-Sep-12 20:33N 41°07' W 068°60'1111.3
2014-Sep-12 19:33N 40°56' W 068°55'1211.1
2014-Sep-12 18:31N 40°45' W 068°51'1110.1
2014-Sep-12 17:28N 40°36' W 068°58'1011.3
2014-Sep-12 16:33N 40°30' W 069°08'1111.0
2014-Sep-12 15:33N 40°26' W 069°22'1211.3
2014-Sep-12 14:31N 40°26' W 069°37'1111.3
2014-Sep-12 13:33N 40°25' W 069°52'1111.3
2014-Sep-12 12:33N 40°25' W 070°06'1111.1
2014-Sep-12 11:33N 40°25' W 070°21'1111.1
2014-Sep-12 10:33N 40°25' W 070°36'5 8.6
2014-Sep-12 10:00N 40°24' W 070°42'615.0 010 / 261013.5 19.0
2014-Sep-12 09:33N 40°24' W 070°51'1111.3
2014-Sep-12 08:33N 40°24' W 071°05'1111.3
2014-Sep-12 07:33N 40°24' W 071°20'1111.2
2014-Sep-12 06:33N 40°23' W 071°35'1111.3
2014-Sep-12 05:33N 40°23' W 071°50'1111.2
2014-Sep-12 04:33N 40°23' W 072°04'1111.1
2014-Sep-12 03:33N 40°23' W 072°19'1111.2
2014-Sep-12 02:33N 40°22' W 072°34'1111.2
2014-Sep-12 01:33N 40°22' W 072°48'1111.4
2014-Sep-12 00:33N 40°22' W 073°03'1111.2
2014-Sep-11 23:33N 40°24' W 073°18'1111.3
2014-Sep-11 22:33N 40°25' W 073°33'1111.3
2014-Sep-11 21:33N 40°27' W 073°47'1614.6
2014-Sep-11 20:29N 40°37' W 074°03'3 1.5
2014-Sep-11 18:33N 40°40' W 074°04'0 0.0
2014-Sep-11 17:33N 40°40' W 074°04'0 0.0
2014-Sep-11 16:33N 40°40' W 074°04'0 0.0
2014-Sep-11 15:33N 40°40' W 074°04'0 0.0
2014-Sep-11 14:33N 40°40' W 074°04'0 0.0
2014-Sep-11 13:33N 40°40' W 074°04'0 0.0
2014-Sep-11 12:33N 40°40' W 074°04'0 0.0
2014-Sep-11 11:33N 40°40' W 074°04'9 9.3
2014-Sep-11 10:33N 40°31' W 073°60'1515.0
2014-Sep-11 09:33N 40°24' W 073°42'  

Dump ship's entire track history